Terminal Aerodrome Forecast
Issued by NWS

Home | Current Version | Previous Version | Text Only | Print | Product List | Glossary On
Versions: 1 2 3 4 5 6 7 8 9 10 11 12 13 14 15 16 17 18 19 20 21 22 23 24 25 26
000
FTUS43 KAPX 210535
TAFAPN
TAF
KAPN 210535Z 2106/2206 17004KT 1 1/2SM BR SCT004
      TEMPO 2106/2110 1/2SM FG VV004
     FM211000 18004KT 2SM BR VCSH BKN050
     FM211400 18004KT P6SM VCSH BKN090
     FM220000 14005KT P6SM SCT250=

USA.gov is the U.S. government's official web portal to all federal, state and local government web resources and services.